createdAt,value
2019-04-29T00:00:14.528Z,7.83
2019-04-29T00:02:43.932Z,7.53
2019-04-29T00:05:14.102Z,7.97
2019-04-29T00:07:43.685Z,8.17
2019-04-29T00:10:16.212Z,8.50
2019-04-29T00:12:47.549Z,8.30
2019-04-29T00:15:26.833Z,8.90
2019-04-29T00:17:59.983Z,7.47
2019-04-29T00:20:41.939Z,8.50
2019-04-29T00:23:11.178Z,6.57
2019-04-29T00:25:40.538Z,8.93
2019-04-29T00:28:09.828Z,8.47
2019-04-29T00:30:39.156Z,8.00
2019-04-29T00:33:08.424Z,7.93
2019-04-29T00:35:38.015Z,7.13
2019-04-29T00:38:43.484Z,7.63
2019-04-29T00:41:30.648Z,9.17
2019-04-29T00:44:05.462Z,8.50
2019-04-29T00:46:34.703Z,8.10
2019-04-29T00:49:05.147Z,8.60
2019-04-29T00:51:34.534Z,8.67
2019-04-29T00:54:16.389Z,8.20
2019-04-29T00:56:45.639Z,7.77
2019-04-29T00:59:14.950Z,10.00
2019-04-29T01:01:44.281Z,9.43
2019-04-29T01:04:14.824Z,7.83
2019-04-29T01:06:44.085Z,8.00
2019-04-29T01:09:15.237Z,8.37
2019-04-29T01:11:46.463Z,7.53
2019-04-29T01:14:15.763Z,8.67
2019-04-29T01:16:45.063Z,7.47
2019-04-29T01:19:14.561Z,7.70
2019-04-29T01:21:43.825Z,8.53
2019-04-29T01:24:13.044Z,7.60
2019-04-29T01:27:10.655Z,8.07
2019-04-29T01:29:40.215Z,7.70
2019-04-29T01:32:09.499Z,7.80
2019-04-29T01:34:50.949Z,7.00
2019-04-29T01:37:20.258Z,7.17
2019-04-29T01:40:00.035Z,8.63
2019-04-29T01:42:36.208Z,8.73
2019-04-29T01:45:05.680Z,7.07
2019-04-29T01:47:35.074Z,8.00
2019-04-29T01:50:04.746Z,5.73
2019-04-29T01:52:34.070Z,8.87
2019-04-29T01:55:03.348Z,7.47
2019-04-29T01:57:32.525Z,6.93
2019-04-29T02:00:20.884Z,7.20
2019-04-29T02:02:50.230Z,6.20
2019-04-29T02:05:19.419Z,6.97
2019-04-29T02:07:48.662Z,5.27
2019-04-29T02:10:36.232Z,6.63
2019-04-29T02:13:05.394Z,7.30
2019-04-29T02:15:34.713Z,5.83
2019-04-29T02:18:04.028Z,5.73
2019-04-29T02:20:33.269Z,6.80
2019-04-29T02:23:26.514Z,5.63
2019-04-29T02:26:01.595Z,5.43
2019-04-29T02:28:30.943Z,5.93
2019-04-29T02:31:19.262Z,5.50
2019-04-29T02:33:48.642Z,5.37
2019-04-29T02:36:17.946Z,6.07
2019-04-29T02:38:55.012Z,6.80
2019-04-29T02:41:53.364Z,6.10
2019-04-29T02:44:23.564Z,6.10
2019-04-29T02:46:52.823Z,6.03
2019-04-29T02:49:22.063Z,5.40
2019-04-29T02:51:53.986Z,5.53
2019-04-29T02:54:24.759Z,5.40
2019-04-29T02:57:00.700Z,5.37
2019-04-29T02:59:34.232Z,5.23
2019-04-29T03:02:25.363Z,5.80
2019-04-29T03:05:16.382Z,5.77
2019-04-29T03:07:45.625Z,5.87
2019-04-29T03:10:14.851Z,5.30
2019-04-29T03:12:44.230Z,5.60
2019-04-29T03:15:15.246Z,6.83
2019-04-29T03:17:44.429Z,6.70
2019-04-29T03:20:28.329Z,5.67
2019-04-29T03:23:11.401Z,5.87
2019-04-29T03:25:40.575Z,5.60
2019-04-29T03:28:09.894Z,5.73
2019-04-29T03:30:39.221Z,6.10
2019-04-29T03:33:08.517Z,5.80
2019-04-29T03:35:37.884Z,6.40
2019-04-29T03:38:07.294Z,5.87
2019-04-29T03:40:36.554Z,5.57
2019-04-29T03:43:05.867Z,6.40
2019-04-29T03:45:35.224Z,5.80
2019-04-29T03:48:04.556Z,6.47
2019-04-29T03:50:34.005Z,6.50
2019-04-29T03:53:03.347Z,6.90
2019-04-29T03:55:39.622Z,7.43
2019-04-29T03:58:03.602Z,7.03
2019-04-29T04:00:33.000Z,6.80
2019-04-29T04:03:21.422Z,6.17
2019-04-29T04:06:12.946Z,6.70
2019-04-29T04:08:45.236Z,7.40
2019-04-29T04:11:14.550Z,6.63
2019-04-29T04:13:43.727Z,6.40
2019-04-29T04:16:19.920Z,7.13
2019-04-29T04:18:49.229Z,7.73
2019-04-29T04:21:18.630Z,7.80
2019-04-29T04:23:48.019Z,7.30
2019-04-29T04:26:17.539Z,7.07
2019-04-29T04:28:46.950Z,8.00
2019-04-29T04:31:16.846Z,7.27
2019-04-29T04:33:46.193Z,7.43
2019-04-29T04:36:15.551Z,8.00
2019-04-29T04:38:44.861Z,7.10
2019-04-29T04:41:14.551Z,6.33
2019-04-29T04:43:43.953Z,7.33
2019-04-29T04:46:14.514Z,7.20
2019-04-29T04:48:43.863Z,6.77
2019-04-29T04:51:13.231Z,7.20
2019-04-29T04:53:42.709Z,6.23
2019-04-29T04:56:12.048Z,6.80
2019-04-29T04:58:41.527Z,7.37
2019-04-29T05:01:11.082Z,7.60
2019-04-29T05:03:40.465Z,7.50
2019-04-29T05:06:09.773Z,7.13
2019-04-29T05:08:39.279Z,8.13
2019-04-29T05:11:08.845Z,7.67
2019-04-29T05:13:38.284Z,7.93
2019-04-29T05:16:07.688Z,7.80
2019-04-29T05:18:37.313Z,8.87
2019-04-29T05:21:06.769Z,7.80
2019-04-29T05:23:36.169Z,8.87
2019-04-29T05:26:06.699Z,8.73
2019-04-29T05:28:36.232Z,9.80
2019-04-29T05:31:26.792Z,9.93
2019-04-29T05:33:56.332Z,9.30
2019-04-29T05:36:38.196Z,9.63
2019-04-29T05:39:18.346Z,9.40
2019-04-29T05:41:47.795Z,8.70
2019-04-29T05:44:30.161Z,9.03
2019-04-29T05:47:04.160Z,9.80
2019-04-29T05:49:47.144Z,9.80
2019-04-29T05:52:30.338Z,11.50
2019-04-29T05:55:02.055Z,10.13
2019-04-29T05:57:31.500Z,10.30
2019-04-29T06:00:00.806Z,11.10
2019-04-29T06:02:33.237Z,9.83
2019-04-29T06:05:03.299Z,10.57
2019-04-29T06:07:33.963Z,10.97
2019-04-29T06:10:05.654Z,7.07
2019-04-29T06:12:35.563Z,9.20
2019-04-29T06:15:05.274Z,10.33
2019-04-29T06:17:34.850Z,9.00
2019-04-29T06:20:04.512Z,11.93
2019-04-29T06:22:37.759Z,9.90
2019-04-29T06:25:05.647Z,12.57
2019-04-29T06:27:38.027Z,11.10
2019-04-29T06:30:09.239Z,15.37
2019-04-29T06:32:38.678Z,12.07
2019-04-29T06:35:10.709Z,10.67
2019-04-29T06:37:48.517Z,10.10
2019-04-29T06:40:17.915Z,10.17
2019-04-29T06:42:49.384Z,11.63
2019-04-29T06:45:18.541Z,8.80
2019-04-29T06:47:50.036Z,10.33
2019-04-29T06:53:31.889Z,10.13
2019-04-29T06:56:01.232Z,10.77
2019-04-29T06:58:32.532Z,9.80
2019-04-29T07:01:03.141Z,12.37
2019-04-29T07:03:32.869Z,10.60
2019-04-29T07:06:02.311Z,10.30
2019-04-29T07:08:31.787Z,10.17
2019-04-29T07:11:02.867Z,10.80
2019-04-29T07:13:32.009Z,10.97
2019-04-29T07:16:01.345Z,11.60
2019-04-29T07:18:30.763Z,9.90
2019-04-29T07:21:00.102Z,10.63
2019-04-29T07:23:29.671Z,11.00
2019-04-29T07:25:58.903Z,11.50
2019-04-29T07:28:28.328Z,11.77
2019-04-29T07:31:02.656Z,11.40
2019-04-29T07:33:28.796Z,11.00
2019-04-29T07:36:10.368Z,12.30
2019-04-29T07:38:40.574Z,11.70
2019-04-29T07:41:00.408Z,11.10
2019-04-29T07:43:29.949Z,13.13
2019-04-29T07:46:05.537Z,11.17
2019-04-29T07:48:36.801Z,13.57
2019-04-29T07:51:06.067Z,12.17
2019-04-29T07:53:44.708Z,13.40
2019-04-29T07:56:08.096Z,13.90
2019-04-29T07:58:37.741Z,13.60
2019-04-29T08:01:07.212Z,12.43
2019-04-29T08:03:36.718Z,13.93
2019-04-29T08:06:05.889Z,14.17
2019-04-29T08:08:35.528Z,12.67
2019-04-29T08:11:04.743Z,14.33
2019-04-29T08:13:34.414Z,13.07
2019-04-29T08:16:03.697Z,13.90
2019-04-29T08:18:33.302Z,15.37
2019-04-29T08:21:02.519Z,14.60
2019-04-29T08:23:33.065Z,14.87
2019-04-29T08:26:04.482Z,13.67
2019-04-29T08:28:33.903Z,17.10
2019-04-29T08:31:03.215Z,14.80
2019-04-29T08:33:32.545Z,14.97
2019-04-29T08:36:01.805Z,14.83
2019-04-29T08:38:31.013Z,15.97
2019-04-29T08:41:00.417Z,14.83
2019-04-29T08:43:52.456Z,15.67
2019-04-29T08:46:29.691Z,13.70
2019-04-29T08:49:01.102Z,15.43
2019-04-29T08:51:31.584Z,13.60
2019-04-29T08:54:01.414Z,14.43
2019-04-29T08:56:32.591Z,12.73
2019-04-29T08:59:01.931Z,14.63
2019-04-29T09:01:34.041Z,14.87
2019-04-29T09:06:57.097Z,12.77
2019-04-29T09:09:31.513Z,15.00
2019-04-29T09:12:01.257Z,14.00
2019-04-29T09:14:31.617Z,14.97
2019-04-29T09:17:04.765Z,17.27
2019-04-29T09:19:39.954Z,14.60
2019-04-29T09:22:11.684Z,15.63
2019-04-29T09:24:48.123Z,15.90
2019-04-29T09:27:19.996Z,13.33
2019-04-29T09:29:50.180Z,13.00
2019-04-29T09:32:21.076Z,13.23
2019-04-29T09:34:50.852Z,14.67
2019-04-29T09:37:22.816Z,12.27
2019-04-29T09:39:52.394Z,14.87
2019-04-29T09:42:45.516Z,16.00
2019-04-29T09:45:28.576Z,12.67
2019-04-29T09:47:58.598Z,16.33
2019-04-29T09:50:28.551Z,12.67
2019-04-29T09:52:57.986Z,13.37
2019-04-29T09:55:27.288Z,14.53
2019-04-29T09:58:02.626Z,15.13
2019-04-29T10:00:48.998Z,16.17
2019-04-29T10:03:26.236Z,13.10
2019-04-29T10:06:23.852Z,13.13
2019-04-29T10:08:53.328Z,12.33
2019-04-29T10:11:23.711Z,11.50
2019-04-29T10:13:53.466Z,11.70
2019-04-29T10:16:51.393Z,12.23
2019-04-29T10:19:35.073Z,13.93
2019-04-29T10:22:04.453Z,11.60
2019-04-29T10:24:33.715Z,12.37
2019-04-29T10:27:03.022Z,12.60
2019-04-29T10:29:33.015Z,11.20
2019-04-29T10:32:06.961Z,11.47
2019-04-29T10:34:34.011Z,9.67
2019-04-29T10:37:03.266Z,10.90
2019-04-29T10:39:55.768Z,11.30
2019-04-29T10:42:29.960Z,10.10
2019-04-29T10:45:24.706Z,11.67
2019-04-29T10:48:03.319Z,10.27
2019-04-29T10:50:35.523Z,8.90
2019-04-29T10:53:06.180Z,11.13
2019-04-29T10:55:36.318Z,11.80
2019-04-29T10:58:06.411Z,9.70
2019-04-29T11:01:14.728Z,9.37
2019-04-29T11:03:47.016Z,9.77
2019-04-29T11:06:16.719Z,9.83
2019-04-29T11:08:51.582Z,10.60
2019-04-29T11:11:24.117Z,9.27
2019-04-29T11:13:52.619Z,9.30
2019-04-29T11:16:22.974Z,9.40
2019-04-29T11:18:55.144Z,10.07
2019-04-29T11:21:25.061Z,9.40
2019-04-29T11:24:05.186Z,8.50
2019-04-29T11:26:46.389Z,9.43
2019-04-29T11:29:15.650Z,7.73
2019-04-29T11:31:49.127Z,7.80
2019-04-29T11:34:25.832Z,9.63
2019-04-29T11:36:55.360Z,8.60
2019-04-29T11:39:24.990Z,8.60
2019-04-29T11:41:59.488Z,9.60
2019-04-29T11:44:26.647Z,8.63
2019-04-29T11:46:57.676Z,9.13
2019-04-29T11:49:35.656Z,8.40
2019-04-29T11:52:09.805Z,8.87
2019-04-29T11:54:38.654Z,9.30
2019-04-29T11:57:10.102Z,8.10
2019-04-29T12:00:03.262Z,7.53
2019-04-29T12:03:00.762Z,8.13
2019-04-29T12:05:40.121Z,9.17
2019-04-29T12:08:16.023Z,8.83
2019-04-29T12:10:48.533Z,8.43
2019-04-29T12:13:19.050Z,8.20
2019-04-29T12:16:19.621Z,7.73
2019-04-29T12:18:52.411Z,7.90
2019-04-29T12:21:30.507Z,7.17
2019-04-29T12:24:02.222Z,7.90
2019-04-29T12:26:35.584Z,8.27
2019-04-29T12:29:02.348Z,8.40
2019-04-29T12:31:51.113Z,10.17
2019-04-29T12:34:32.987Z,9.30
2019-04-29T12:37:03.332Z,8.17
2019-04-29T12:40:09.838Z,8.77
2019-04-29T12:42:56.312Z,8.53
2019-04-29T12:45:47.691Z,9.27
2019-04-29T12:48:24.265Z,8.40
2019-04-29T12:50:51.106Z,9.10
2019-04-29T12:53:20.273Z,8.57
2019-04-29T12:55:53.504Z,8.80
2019-04-29T12:58:24.204Z,8.30
2019-04-29T13:00:59.761Z,9.00
2019-04-29T13:03:41.042Z,9.07
2019-04-29T13:06:39.185Z,8.67
2019-04-29T13:09:17.574Z,9.47
2019-04-29T13:11:48.767Z,8.80
2019-04-29T13:14:16.887Z,9.50
2019-04-29T13:17:18.615Z,9.17
2019-04-29T13:20:02.032Z,9.57
2019-04-29T13:22:30.134Z,8.30
2019-04-29T13:25:03.034Z,9.60
2019-04-29T13:27:32.997Z,9.53
2019-04-29T13:30:14.912Z,9.50
2019-04-29T13:32:39.748Z,8.40
2019-04-29T13:35:15.732Z,9.20
2019-04-29T13:37:46.397Z,9.20
2019-04-29T13:40:16.265Z,8.53
2019-04-29T13:42:49.254Z,9.20
2019-04-29T13:45:24.982Z,8.60
2019-04-29T13:48:17.091Z,8.17
2019-04-29T13:50:51.556Z,8.13
2019-04-29T13:53:31.527Z,8.87
2019-04-29T13:56:32.722Z,8.57
2019-04-29T13:58:50.803Z,7.97
2019-04-29T14:01:58.650Z,8.37
2019-04-29T14:04:31.873Z,9.03
2019-04-29T14:07:03.023Z,15.10
2019-04-29T14:09:35.165Z,10.80
2019-04-29T14:12:42.344Z,11.70
2019-04-29T14:17:25.358Z,9.87
2019-04-29T14:19:42.763Z,9.57
2019-04-29T14:22:22.060Z,10.60
2019-04-29T14:24:46.713Z,10.20
2019-04-29T14:27:24.919Z,10.70
2019-04-29T14:29:53.862Z,12.23
2019-04-29T14:32:34.671Z,15.60
2019-04-29T14:37:25.174Z,9.60
2019-04-29T14:39:54.469Z,11.10
2019-04-29T14:42:58.157Z,11.60
2019-04-29T14:45:48.649Z,12.03
2019-04-29T14:48:47.106Z,11.90
2019-04-29T14:51:16.622Z,12.47
2019-04-29T14:53:56.128Z,13.27
2019-04-29T14:56:17.187Z,12.97
2019-04-29T14:58:46.581Z,12.40
2019-04-29T15:01:30.803Z,12.30
2019-04-29T15:04:16.961Z,14.37
2019-04-29T15:06:33.383Z,13.20
2019-04-29T15:09:02.709Z,15.70
2019-04-29T15:11:45.326Z,15.07
2019-04-29T15:14:28.847Z,14.97
2019-04-29T15:17:06.094Z,16.50
2019-04-29T15:19:55.501Z,15.90
2019-04-29T15:22:24.911Z,16.10
2019-04-29T15:24:54.160Z,16.40
2019-04-29T15:27:23.458Z,17.10
2019-04-29T15:29:52.905Z,21.20
2019-04-29T15:32:23.787Z,19.33
2019-04-29T15:34:53.183Z,21.20
2019-04-29T15:37:22.611Z,21.77
2019-04-29T15:39:51.926Z,20.30
2019-04-29T15:42:21.275Z,21.03
2019-04-29T15:44:51.534Z,22.80
2019-04-29T15:47:21.807Z,24.27
2019-04-29T15:49:55.824Z,26.40
2019-04-29T15:52:25.841Z,24.37
2019-04-29T15:54:55.623Z,24.70
2019-04-29T15:57:25.093Z,24.97
2019-04-29T15:59:59.767Z,25.60
2019-04-29T16:02:26.216Z,26.57
2019-04-29T16:05:09.261Z,26.37
2019-04-29T16:08:07.714Z,26.03
2019-04-29T16:11:01.859Z,26.90
2019-04-29T16:13:31.896Z,27.67
2019-04-29T16:16:01.176Z,28.43
2019-04-29T16:18:30.491Z,28.33
2019-04-29T16:20:59.792Z,28.57
2019-04-29T16:23:32.950Z,28.60
2019-04-29T16:26:00.014Z,29.93
2019-04-29T16:28:31.586Z,30.03
2019-04-29T16:31:05.017Z,30.90
2019-04-29T16:33:31.972Z,29.07
2019-04-29T16:36:04.980Z,28.93
2019-04-29T16:38:32.334Z,29.00
2019-04-29T16:41:19.448Z,29.87
2019-04-29T16:43:49.467Z,26.23
2019-04-29T16:46:23.417Z,29.80
2019-04-29T16:48:53.139Z,22.77
2019-04-29T16:51:22.378Z,27.93
2019-04-29T16:53:51.744Z,29.00
2019-04-29T16:56:21.024Z,28.73
2019-04-29T16:58:50.740Z,28.60
2019-04-29T17:01:20.510Z,29.77
2019-04-29T17:03:53.965Z,31.27
2019-04-29T17:06:23.705Z,32.03
2019-04-29T17:09:12.410Z,30.60
2019-04-29T17:11:41.986Z,29.27
2019-04-29T17:14:12.981Z,30.03
2019-04-29T17:16:42.454Z,28.80
2019-04-29T17:19:11.824Z,30.43
2019-04-29T17:21:41.190Z,29.00
2019-04-29T17:24:10.543Z,29.87
2019-04-29T17:27:07.949Z,29.10
2019-04-29T17:30:11.700Z,30.20
2019-04-29T17:32:58.275Z,28.27
2019-04-29T17:35:30.263Z,27.30
2019-04-29T17:38:11.598Z,28.07
2019-04-29T17:40:57.561Z,27.60
2019-04-29T17:43:46.940Z,29.47
2019-04-29T17:46:34.103Z,28.10
2019-04-29T17:49:13.751Z,28.30
2019-04-29T17:51:43.412Z,28.13
2019-04-29T17:54:15.881Z,26.27
2019-04-29T17:57:26.527Z,28.27
2019-04-29T18:00:10.081Z,26.60
2019-04-29T18:03:00.660Z,26.67
2019-04-29T18:05:54.848Z,28.00
2019-04-29T18:08:28.902Z,26.40
2019-04-29T18:10:59.868Z,27.70
2019-04-29T18:13:35.264Z,26.07
2019-04-29T18:16:09.302Z,26.87
2019-04-29T18:18:53.545Z,26.93
2019-04-29T18:21:56.070Z,26.30
2019-04-29T18:24:40.348Z,24.30
2019-04-29T18:27:15.123Z,25.10
2019-04-29T18:29:45.867Z,19.90
2019-04-29T18:32:15.628Z,25.27
2019-04-29T18:34:45.336Z,26.67
2019-04-29T18:37:15.260Z,27.80
2019-04-29T18:39:53.033Z,26.17
2019-04-29T18:42:23.774Z,25.63
2019-04-29T18:44:57.639Z,24.10
2019-04-29T18:47:27.652Z,26.27
2019-04-29T18:49:56.528Z,27.10
2019-04-29T18:52:28.424Z,25.43
2019-04-29T18:54:57.336Z,26.20
2019-04-29T18:57:30.811Z,24.90
2019-04-29T19:00:04.824Z,26.57
2019-04-29T19:02:44.985Z,25.50
2019-04-29T19:05:17.926Z,25.53
2019-04-29T19:07:54.998Z,23.67
2019-04-29T19:10:19.101Z,26.10
2019-04-29T19:13:00.142Z,26.43
2019-04-29T19:15:27.362Z,28.20
2019-04-29T19:18:01.366Z,26.83
2019-04-29T19:20:27.974Z,25.10
2019-04-29T19:23:05.727Z,24.37
2019-04-29T19:25:28.466Z,24.73
2019-04-29T19:28:11.256Z,25.67
2019-04-29T19:30:30.310Z,26.90
2019-04-29T19:33:00.836Z,26.27
2019-04-29T19:35:36.991Z,23.20
2019-04-29T19:38:02.149Z,23.40
2019-04-29T19:40:40.509Z,24.07
2019-04-29T19:43:02.769Z,23.17
2019-04-29T19:45:33.166Z,26.17
2019-04-29T19:48:02.562Z,24.27
2019-04-29T19:50:32.273Z,25.00
2019-04-29T19:53:05.060Z,25.50
2019-04-29T19:55:41.704Z,24.37
2019-04-29T19:58:07.631Z,25.10
2019-04-29T20:00:43.475Z,25.73
2019-04-29T20:03:21.219Z,26.90
2019-04-29T20:05:53.285Z,23.20
2019-04-29T20:08:43.473Z,23.77
2019-04-29T20:10:58.004Z,23.10
2019-04-29T20:13:31.296Z,21.40
2019-04-29T20:16:22.782Z,23.10
2019-04-29T20:19:17.985Z,24.57
2019-04-29T20:21:46.256Z,23.50
2019-04-29T20:24:17.851Z,22.77
2019-04-29T20:26:47.458Z,23.47
2019-04-29T20:29:17.124Z,24.47
2019-04-29T20:31:56.358Z,24.20
2019-04-29T20:34:28.143Z,24.77
2019-04-29T20:36:56.217Z,24.30
2019-04-29T20:39:26.279Z,23.00
2019-04-29T20:41:56.121Z,24.03
2019-04-29T20:44:25.834Z,22.80
2019-04-29T20:47:15.601Z,28.20
2019-04-29T20:49:30.474Z,25.83
2019-04-29T20:52:13.460Z,25.67
2019-04-29T20:54:41.205Z,24.70
2019-04-29T20:57:17.453Z,24.70
2019-04-29T20:59:46.034Z,25.27
2019-04-29T21:02:29.471Z,26.13
2019-04-29T21:04:46.531Z,26.10
2019-04-29T21:07:16.958Z,25.17
2019-04-29T21:09:52.577Z,25.70
2019-04-29T21:12:40.513Z,26.50
2019-04-29T21:15:16.371Z,25.20
2019-04-29T21:17:46.070Z,26.43
2019-04-29T21:20:16.610Z,27.53
2019-04-29T21:22:47.166Z,29.47
2019-04-29T21:25:16.644Z,25.27
2019-04-29T21:27:48.486Z,26.70
2019-04-29T21:30:19.949Z,25.97
2019-04-29T21:32:50.649Z,26.13
2019-04-29T21:35:40.071Z,29.17
2019-04-29T21:38:39.417Z,26.57
2019-04-29T21:41:15.506Z,25.80
2019-04-29T21:43:46.966Z,25.77
2019-04-29T21:46:18.070Z,26.37
2019-04-29T21:48:48.815Z,20.83
2019-04-29T21:51:18.200Z,23.97
2019-04-29T21:53:47.553Z,23.40
2019-04-29T21:56:18.122Z,24.63
2019-04-29T21:58:47.617Z,23.13
2019-04-29T22:01:18.371Z,22.03
2019-04-29T22:03:47.903Z,20.00
2019-04-29T22:06:17.450Z,20.60
2019-04-29T22:08:55.845Z,19.70
2019-04-29T22:11:25.858Z,18.47
2019-04-29T22:13:55.555Z,18.17
2019-04-29T22:16:25.142Z,17.80
2019-04-29T22:18:56.166Z,16.20
2019-04-29T22:21:26.008Z,16.60
2019-04-29T22:23:57.774Z,15.17
2019-04-29T22:26:27.195Z,15.50
2019-04-29T22:29:03.274Z,16.93
2019-04-29T22:31:33.977Z,16.80
2019-04-29T22:34:00.610Z,17.70
2019-04-29T22:36:30.996Z,18.07
2019-04-29T22:39:00.394Z,17.07
2019-04-29T22:42:00.744Z,16.47
2019-04-29T22:44:30.172Z,15.70
2019-04-29T22:46:59.516Z,13.27
2019-04-29T22:49:30.908Z,12.10
2019-04-29T22:52:02.416Z,13.17
2019-04-29T22:54:32.069Z,11.73
2019-04-29T22:57:05.696Z,11.90
2019-04-29T22:59:35.415Z,11.03
2019-04-29T23:02:06.864Z,10.30
2019-04-29T23:04:36.150Z,11.27
2019-04-29T23:07:06.692Z,9.60
2019-04-29T23:09:46.367Z,10.20
2019-04-29T23:12:18.424Z,11.43
2019-04-29T23:14:45.743Z,10.10
2019-04-29T23:17:25.489Z,9.60
2019-04-29T23:19:59.078Z,10.97
2019-04-29T23:22:56.795Z,8.90
2019-04-29T23:25:32.478Z,8.00
2019-04-29T23:28:01.806Z,7.90
2019-04-29T23:30:31.075Z,8.77
2019-04-29T23:33:03.759Z,8.33
2019-04-29T23:35:34.860Z,8.20
2019-04-29T23:38:09.162Z,8.40
2019-04-29T23:40:35.021Z,8.20
2019-04-29T23:43:06.180Z,8.60
2019-04-29T23:45:35.690Z,8.50
2019-04-29T23:48:05.612Z,8.17
2019-04-29T23:50:35.900Z,9.00
2019-04-29T23:53:05.815Z,7.10
2019-04-29T23:55:35.684Z,7.20
2019-04-29T23:58:42.363Z,7.00
